| time (UTC) | temp C | wind direction | speed KPH | gust KPH | rain 1hr cm | rain 24hr cm | rain mn cm | humidity % | barometer mb |
| 20260507151025 | 19 | 296 | 0.0 | 0.0 | 0.76 | 7.21 | 6.43 | 94 | 1009.5 |
| 20260507150525 | 19 | 297 | 0.0 | 0.0 | 0.74 | 7.19 | 6.43 | 94 | 1009.6 |
| 20260507150026 | 19 | 297 | 0.0 | 0.0 | 0.36 | 6.81 | 6.12 | 94 | 1009.4 |
| 20260507145526 | 19 | 296 | 0.0 | 0.0 | 0.20 | 6.65 | 5.87 | 94 | 1010.0 |
| 20260507145025 | 19 | 296 | 0.0 | 0.0 | 0.10 | 6.53 | 5.77 | 94 | 1009.4 |
| 20260507144524 | 19 | 304 | 0.0 | 0.0 | 0.05 | 6.48 | 5.71 | 94 | 1009.6 |
| 20260507144022 | 19 | 289 | 0.0 | 0.0 | 0.03 | 6.45 | 5.66 | 94 | 1009.6 |
| 20260507143523 | 19 | 290 | 0.0 | 0.0 | 0.03 | 6.45 | 5.66 | 94 | 1009.7 |
| 20260507143023 | 19 | 290 | 0.0 | 0.0 | 0.03 | 6.45 | 5.66 | 94 | 1009.8 |
| 20260507142524 | 19 | 313 | 0.0 | 0.0 | 0.03 | 6.45 | 5.66 | 93 | 1009.8 |
| 20260507142022 | 19 | 125 | 0.0 | 0.0 | 0.03 | 6.45 | 5.66 | 94 | 1009.3 |
| 20260507141523 | 19 | 125 | 0.0 | 1.6 | 0.03 | 6.45 | 5.66 | 94 | 1009.3 |
| 20260507141023 | 19 | 126 | 0.0 | 1.6 | 0.05 | 6.45 | 5.66 | 94 | 1009.2 |
| 20260507140523 | 19 | 49 | 0.0 | 0.0 | 0.05 | 6.45 | 5.66 | 94 | 1009.3 |
| 20260507140023 | 19 | 48 | 0.0 | 0.0 | 0.10 | 6.45 | 5.66 | 94 | 1009.2 |
| 20260507135523 | 19 | 49 | 0.0 | 0.0 | 0.15 | 6.45 | 5.66 | 94 | 1009.3 |
| 20260507135023 | 19 | 49 | 0.0 | 0.0 | 0.15 | 6.43 | 5.64 | 94 | 1009.2 |
| 20260507134524 | 19 | 42 | 0.0 | 3.2 | 0.23 | 6.43 | 5.64 | 94 | 1009.1 |
| 20260507134022 | 19 | 41 | 0.0 | 3.2 | 0.28 | 6.43 | 5.64 | 93 | 1009.1 |
| 20260507133525 | 19 | 321 | 0.0 | 0.0 | 0.30 | 6.43 | 5.64 | 94 | 1009.1 |
| 20260507133023 | 19 | 321 | 0.0 | 0.0 | 0.30 | 6.43 | 5.64 | 94 | 1009.1 |
| 20260507132523 | 19 | 321 | 0.0 | 0.0 | 0.30 | 6.43 | 5.64 | 94 | 1009.1 |
| 20260507132023 | 20 | 321 | 0.0 | 0.0 | 0.30 | 6.43 | 5.64 | 93 | 1009.1 |
| 20260507131522 | 20 | 327 | 1.6 | 8.0 | 0.33 | 6.43 | 5.64 | 93 | 1009.1 |
| 20260507131022 | 20 | 327 | 1.6 | 9.7 | 0.30 | 6.40 | 5.64 | 93 | 1009.0 |
| 20260507130524 | 20 | 326 | 3.2 | 12.9 | 0.33 | 6.40 | 5.61 | 95 | 1008.9 |
| 20260507130023 | 20 | 281 | 3.2 | 12.9 | 0.36 | 6.35 | 5.59 | 95 | 1008.6 |
| 20260507125524 | 20 | 278 | 3.2 | 12.9 | 0.43 | 6.30 | 5.51 | 95 | 1008.6 |
| 20260507125023 | 20 | 279 | 3.2 | 11.3 | 0.64 | 6.27 | 5.51 | 95 | 1008.4 |
| 20260507124523 | 20 | 281 | 1.6 | 9.7 | 1.17 | 6.20 | 5.44 | 95 | 1008.4 |
| 20260507124022 | 20 | 291 | 1.6 | 9.7 | 1.70 | 6.15 | 5.36 | 95 | 1008.3 |
| 20260507123022 | 20 | 310 | 1.6 | 11.3 | 2.77 | 6.12 | 5.33 | 95 | 1008.0 |
| 20260507122523 | 20 | 315 | 1.6 | 11.3 | 3.30 | 6.12 | 5.33 | 95 | 1007.9 |
| 20260507122022 | 20 | 301 | 1.6 | 12.9 | 3.63 | 6.12 | 5.33 | 95 | 1007.8 |
| 20260507121524 | 20 | 319 | 1.6 | 12.9 | 3.71 | 6.10 | 5.31 | 95 | 1007.8 |
| 20260507121022 | 20 | 295 | 1.6 | 12.9 | 3.76 | 6.10 | 5.31 | 95 | 1007.9 |
| 20260507120523 | 20 | 286 | 3.2 | 12.9 | 3.76 | 6.07 | 5.28 | 95 | 1007.7 |
| 20260507120023 | 20 | 273 | 3.2 | 14.5 | 3.68 | 5.99 | 5.23 | 95 | 1007.4 |
| 20260507115023 | 20 | 283 | 6.4 | 24.1 | 3.35 | 5.64 | 4.85 | 94 | 1007.7 |
| 20260507114521 | 20 | 225 | 8.0 | 24.1 | 2.74 | 5.03 | 4.32 | 94 | 1007.9 |
| 20260507114020 | 20 | 214 | 6.4 | 20.9 | 2.16 | 4.45 | 3.66 | 94 | 1007.7 |
| 20260507113521 | 20 | 219 | 3.2 | 20.9 | 1.57 | 3.84 | 3.05 | 94 | 1007.4 |
| 20260507113020 | 20 | 217 | 4.8 | 14.5 | 1.09 | 3.35 | 2.62 | 94 | 1007.6 |
| 20260507112519 | 20 | 257 | 4.8 | 14.5 | 0.56 | 2.82 | 2.08 | 94 | 1007.6 |
| 20260507112018 | 20 | 229 | 3.2 | 12.9 | 0.23 | 2.49 | 1.73 | 94 | 1007.2 |
| 20260507111518 | 20 | 205 | 4.8 | 14.5 | 0.13 | 2.39 | 1.60 | 94 | 1007.2 |
| 20260507111019 | 20 | 229 | 3.2 | 14.5 | 0.08 | 2.34 | 1.57 | 94 | 1007.0 |
| 20260507110519 | 20 | 226 | 3.2 | 11.3 | 0.05 | 2.31 | 1.52 | 94 | 1007.1 |
| 20260507110018 | 20 | 209 | 3.2 | 12.9 | 0.05 | 2.31 | 1.52 | 94 | 1007.1 |
| 20260507105519 | 20 | 214 | 3.2 | 12.9 | 0.03 | 2.29 | 1.52 | 94 | 1007.1 |
| 20260507104518 | 20 | 237 | 3.2 | 16.1 | 0.03 | 2.29 | 1.50 | 94 | 1007.1 |
| 20260507104018 | 20 | 236 | 1.6 | 11.3 | 0.03 | 2.29 | 1.50 | 94 | 1007.2 |
| 20260507103519 | 20 | 222 | 1.6 | 11.3 | 0.00 | 2.26 | 1.47 | 94 | 1007.3 |
| 20260507103016 | 20 | 247 | 1.6 | 6.4 | 0.08 | 2.26 | 1.47 | 94 | 1007.4 |
| 20260507102516 | 20 | 232 | 3.2 | 9.7 | 0.10 | 2.26 | 1.47 | 94 | 1007.4 |
| 20260507102017 | 20 | 259 | 3.2 | 9.7 | 0.15 | 2.26 | 1.47 | 94 | 1007.6 |
| 20260507101516 | 20 | 232 | 3.2 | 9.7 | 0.18 | 2.26 | 1.47 | 94 | 1007.6 |
| 20260507100516 | 20 | 221 | 3.2 | 9.7 | 0.23 | 2.26 | 1.47 | 94 | 1007.2 |
| 20260507100016 | 20 | 215 | 1.6 | 8.0 | 0.36 | 2.26 | 1.47 | 94 | 1007.2 |
| 20260507095018 | 20 | 225 | 4.8 | 27.4 | 0.41 | 2.26 | 1.47 | 94 | 1007.3 |
| 20260507094516 | 20 | 214 | 3.2 | 27.4 | 0.43 | 2.26 | 1.47 | 94 | 1007.4 |
| 20260507094015 | 20 | 219 | 4.8 | 17.7 | 0.46 | 2.26 | 1.47 | 94 | 1007.1 |
| 20260507093514 | 20 | 211 | 4.8 | 17.7 | 0.46 | 2.26 | 1.47 | 94 | 1006.8 |
| 20260507093013 | 20 | 248 | 3.2 | 17.7 | 0.38 | 2.18 | 1.42 | 94 | 1006.9 |
| 20260507092515 | 20 | 173 | 3.2 | 14.5 | 0.36 | 2.16 | 1.37 | 94 | 1007.0 |
| 20260507092014 | 20 | 174 | 6.4 | 14.5 | 0.30 | 2.11 | 1.35 | 94 | 1007.3 |
| 20260507091514 | 20 | 202 | 6.4 | 17.7 | 0.28 | 2.08 | 1.30 | 94 | 1007.9 |
| 20260507091011 | 20 | 219 | 4.8 | 17.7 | 0.25 | 2.06 | 1.27 | 94 | 1007.8 |
| 20260507090513 | 20 | 214 | 1.6 | 16.1 | 0.23 | 2.03 | 1.24 | 94 | 1007.0 |
| 20260507090013 | 20 | 137 | 1.6 | 11.3 | 0.10 | 1.91 | 1.14 | 94 | 1008.0 |
| 20260507085512 | 20 | 285 | 1.6 | 8.0 | 0.05 | 1.85 | 1.07 | 94 | 1009.2 |
| 20260507085012 | 20 | 246 | 1.6 | 11.3 | 0.05 | 1.85 | 1.07 | 94 | 1008.7 |
| 20260507084511 | 20 | 227 | 1.6 | 11.3 | 0.03 | 1.83 | 1.04 | 94 | 1008.6 |
| 20260507084012 | 20 | 110 | 0.0 | 6.4 | 0.00 | 1.80 | 1.02 | 94 | 1008.3 |
| 20260507083512 | 20 | 216 | 0.0 | 0.0 | 0.03 | 1.80 | 1.02 | 94 | 1008.7 |
| 20260507083011 | 20 | 211 | 0.0 | 6.4 | 0.03 | 1.80 | 1.02 | 94 | 1008.8 |
| 20260507082512 | 20 | 167 | 0.0 | 6.4 | 0.03 | 1.80 | 1.02 | 94 | 1008.8 |
| 20260507082012 | 20 | 223 | 0.0 | 0.0 | 0.03 | 1.80 | 1.02 | 94 | 1008.7 |
| 20260507081511 | 20 | 223 | 0.0 | 0.0 | 0.03 | 1.80 | 1.02 | 94 | 1008.6 |
| 20260507081011 | 20 | 223 | 0.0 | 0.0 | 0.03 | 1.80 | 1.02 | 94 | 1008.7 |
| 20260507080509 | 20 | 223 | 0.0 | 0.0 | 0.03 | 1.80 | 1.02 | 94 | 1008.5 |
| 20260507075508 | 20 | 223 | 1.6 | 6.4 | 0.03 | 1.80 | 1.02 | 94 | 1008.5 |
| 20260507074507 | 20 | 253 | 1.6 | 9.7 | 0.03 | 1.80 | 1.02 | 94 | 1008.7 |
| 20260507074007 | 20 | 219 | 1.6 | 9.7 | 0.08 | 1.80 | 1.02 | 94 | 1008.8 |
| 20260507073009 | 20 | 238 | 3.2 | 11.3 | 0.15 | 1.78 | 0.99 | 94 | 1008.9 |
| 20260507072509 | 20 | 212 | 3.2 | 11.3 | 0.18 | 1.78 | 0.99 | 94 | 1008.8 |
| 20260507072008 | 20 | 199 | 4.8 | 11.3 | 0.18 | 1.78 | 0.99 | 94 | 1008.8 |
| 20260507071508 | 20 | 203 | 4.8 | 9.7 | 0.20 | 1.78 | 0.99 | 94 | 1008.7 |
| 20260507071007 | 20 | 195 | 3.2 | 11.3 | 0.23 | 1.78 | 0.99 | 94 | 1008.7 |
| 20260507070507 | 20 | 238 | 1.6 | 11.3 | 0.25 | 1.78 | 0.99 | 93 | 1008.6 |
| 20260507070012 | 20 | 218 | 3.2 | 9.7 | 0.25 | 1.78 | 0.99 | 93 | 1008.3 |
| 20260507065507 | 20 | 191 | 1.6 | 8.0 | 0.25 | 1.78 | 0.99 | 93 | 1008.6 |
| 20260507065008 | 20 | 254 | 1.6 | 8.0 | 0.28 | 1.78 | 0.99 | 93 | 1008.9 |
| 20260507064507 | 20 | 248 | 1.6 | 8.0 | 0.30 | 1.78 | 0.99 | 93 | 1008.6 |
| 20260507064008 | 20 | 111 | 1.6 | 9.7 | 0.28 | 1.73 | 0.94 | 93 | 1007.8 |
| 20260507063507 | 20 | 186 | 1.6 | 9.7 | 0.25 | 1.68 | 0.91 | 93 | 1008.5 |
| 20260507063006 | 20 | 222 | 1.6 | 8.0 | 0.25 | 1.63 | 0.86 | 93 | 1008.7 |
| 20260507062505 | 20 | 214 | 3.2 | 17.7 | 0.23 | 1.60 | 0.81 | 93 | 1008.6 |
| 20260507062005 | 20 | 209 | 3.2 | 17.7 | 0.28 | 1.60 | 0.81 | 93 | 1008.4 |
| 20260507061505 | 20 | 181 | 3.2 | 14.5 | 0.30 | 1.57 | 0.79 | 93 | 1008.1 |
| 20260507061005 | 20 | 148 | 4.8 | 14.5 | 0.36 | 1.55 | 0.76 | 93 | 1009.2 |
| 20260507060506 | 20 | 215 | 6.4 | 16.1 | 0.41 | 1.52 | 0.74 | 93 | 1009.7 |
| 20260507060006 | 20 | 213 | 4.8 | 16.1 | 0.46 | 1.52 | 0.74 | 93 | 1009.5 |
| 20260507055505 | 20 | 216 | 3.2 | 16.1 | 0.51 | 1.52 | 0.74 | 93 | 1009.5 |
| 20260507054506 | 20 | 215 | 4.8 | 12.9 | 0.56 | 1.47 | 0.69 | 93 | 1009.5 |
| 20260507054005 | 20 | 219 | 4.8 | 16.1 | 0.56 | 1.45 | 0.66 | 93 | 1009.5 |
| 20260507053004 | 20 | 213 | 3.2 | 14.5 | 0.53 | 1.37 | 0.58 | 93 | 1009.5 |
| 20260507052504 | 20 | 234 | 3.2 | 16.1 | 0.53 | 1.37 | 0.58 | 93 | 1009.3 |
| 20260507052003 | 20 | 223 | 4.8 | 19.3 | 0.51 | 1.32 | 0.53 | 93 | 1009.8 |
| 20260507051504 | 20 | 182 | 6.4 | 19.3 | 0.46 | 1.27 | 0.51 | 93 | 1010.5 |
| 20260507051003 | 20 | 218 | 8.0 | 25.7 | 0.38 | 1.19 | 0.41 | 93 | 1011.4 |
| 20260507050002 | 20 | 219 | 9.7 | 19.3 | 0.28 | 1.07 | 0.28 | 92 | 1011.2 |
| 20260507045502 | 20 | 257 | 8.0 | 17.7 | 0.23 | 1.02 | 0.23 | 92 | 1011.0 |
| 20260507045003 | 20 | 279 | 8.0 | 17.7 | 0.18 | 0.97 | 0.18 | 92 | 1010.7 |
| 20260507044503 | 20 | 218 | 6.4 | 17.7 | 0.15 | 0.91 | 0.13 | 92 | 1010.6 |
| 20260507044004 | 20 | 229 | 3.2 | 16.1 | 0.13 | 0.89 | 0.10 | 92 | 1010.4 |
| 20260507043004 | 20 | 242 | 6.4 | 12.9 | 0.08 | 0.84 | 0.05 | 92 | 1010.2 |
| 20260507042003 | 20 | 226 | 6.4 | 17.7 | 0.05 | 0.81 | 0.03 | 92 | 1010.3 |
| 20260507041003 | 20 | 259 | 4.8 | 12.9 | 0.05 | 0.81 | 0.03 | 92 | 1010.7 |
| 20260507040503 | 20 | 234 | 3.2 | 11.3 | 0.15 | 0.81 | 0.03 | 92 | 1011.0 |
| 20260507040003 | 20 | 264 | 3.2 | 9.7 | 0.36 | 0.79 | 0.00 | 92 | 1010.9 |
| 20260507035500 | 20 | 273 | 3.2 | 9.7 | 0.38 | 0.79 | 0.79 | 92 | 1010.8 |
| 20260507034501 | 21 | 130 | 0.0 | 0.0 | 0.36 | 0.76 | 0.76 | 91 | 1010.1 |
| 20260507034000 | 21 | 234 | 0.0 | 4.8 | 0.36 | 0.76 | 0.76 | 91 | 1010.3 |
| 20260507033000 | 21 | 217 | 0.0 | 6.4 | 0.46 | 0.76 | 0.76 | 91 | 1010.1 |
| 20260507032501 | 21 | 288 | 0.0 | 6.4 | 0.71 | 0.76 | 0.76 | 91 | 1010.2 |
| 20260507032001 | 21 | 225 | 1.6 | 6.4 | 0.71 | 0.76 | 0.76 | 91 | 1010.3 |
| 20260507031501 | 21 | 200 | 3.2 | 14.5 | 0.71 | 0.76 | 0.76 | 91 | 1010.0 |
| 20260507031001 | 21 | 241 | 3.2 | 14.5 | 0.71 | 0.76 | 0.76 | 90 | 1010.1 |
| 20260507030000 | 21 | 303 | 4.8 | 14.5 | 0.38 | 0.43 | 0.51 | 90 | 1011.3 |
| 20260507025501 | 21 | 288 | 4.8 | 19.3 | 0.36 | 0.41 | 0.41 | 90 | 1011.0 |
| 20260507025000 | 21 | 221 | 4.8 | 19.3 | 0.38 | 0.41 | 0.41 | 89 | 1011.2 |
| 20260507024500 | 21 | 200 | 3.2 | 14.5 | 0.38 | 0.41 | 0.41 | 89 | 1011.3 |
| 20260507023502 | 21 | 213 | 1.6 | 9.7 | 0.41 | 0.41 | 0.41 | 89 | 1011.2 |
| 20260507023000 | 22 | 207 | 1.6 | 9.7 | 0.30 | 0.30 | 0.30 | 88 | 1011.3 |
| 20260507022500 | 22 | 294 | 1.6 | 6.4 | 0.05 | 0.05 | 0.05 | 88 | 1012.2 |
| 20260507021458 | 22 | 220 | 0.0 | 4.8 | 0.05 | 0.05 | 0.05 | 87 | 1010.4 |
| 20260507020958 | 22 | 184 | 0.0 | 0.0 | 0.05 | 0.05 | 0.05 | 87 | 1010.1 |
| 20260507020456 | 22 | 202 | 0.0 | 1.6 | 0.05 | 0.05 | 0.05 | 87 | 1010.2 |
| 20260507015457 | 22 | 265 | 0.0 | 0.0 | 0.05 | 0.05 | 0.05 | 89 | 1010.2 |
| 20260507014955 | 22 | 264 | 0.0 | 0.0 | 0.03 | 0.03 | 0.03 | 89 | 1010.6 |
| 20260507014455 | 22 | 265 | 0.0 | 0.0 | 0.03 | 0.03 | 0.03 | 88 | 1010.6 |
| 20260507013955 | 22 | 265 | 0.0 | 0.0 | 0.00 | 0.00 | 0.00 | 88 | 1010.5 |
| 20260507013452 | 22 | 264 | 0.0 | 0.0 | 0.00 | 0.00 | 0.00 | 87 | 1010.4 |
| 20260507012452 | 23 | 265 | 0.0 | 0.0 | 0.00 | 0.00 | 0.00 | 84 | 1010.5 |
| 20260507011953 | 23 | 265 | 0.0 | 0.0 | 0.00 | 0.00 | 0.00 | 84 | 1010.4 |
| 20260507011450 | 23 | 265 | 0.0 | 0.0 | 0.00 | 0.00 | 0.00 | 82 | 1010.4 |
| 20260507010451 | 24 | 265 | 0.0 | 0.0 | 0.00 | 0.00 | 0.00 | 79 | 1010.7 |
| 20260507005951 | 24 | 264 | 0.0 | 0.0 | 0.00 | 0.00 | 0.00 | 75 | 1010.6 |
| 20260507005450 | 24 | 264 | 0.0 | 0.0 | 0.00 | 0.00 | 0.00 | 75 | 1010.3 |
| 20260507004950 | 25 | 265 | 0.0 | 0.0 | 0.00 | 0.00 | 0.00 | 73 | 1010.4 |
| 20260507004450 | 25 | 263 | 0.0 | 0.0 | 0.00 | 0.00 | 0.00 | 73 | 1010.4 |
| 20260507003951 | 25 | 264 | 0.0 | 4.8 | 0.00 | 0.00 | 0.00 | 72 | 1010.6 |
| 20260507003452 | 25 | 264 | 0.0 | 9.7 | 0.00 | 0.00 | 0.00 | 72 | 1010.6 |
| 20260507002951 | 25 | 229 | 0.0 | 9.7 | 0.00 | 0.00 | 0.00 | 72 | 1010.6 |
| 20260507002448 | 25 | 264 | 1.6 | 11.3 | 0.00 | 0.00 | 0.00 | 71 | 1010.6 |
| 20260507001948 | 25 | 210 | 3.2 | 16.1 | 0.00 | 0.00 | 0.00 | 71 | 1010.5 |
| 20260507001448 | 25 | 175 | 3.2 | 16.1 | 0.00 | 0.00 | 0.00 | 71 | 1010.3 |
| 20260507000948 | 25 | 240 | 1.6 | 14.5 | 0.00 | 0.00 | 0.00 | 71 | 1010.5 |
| 20260507000450 | 25 | 239 | 1.6 | 14.5 | 0.00 | 0.00 | 0.00 | 71 | 1010.3 |
| 20260506235948 | 25 | 238 | 3.2 | 14.5 | 0.00 | 0.00 | 0.00 | 71 | 1010.7 |
| 20260506235448 | 25 | 267 | 1.6 | 11.3 | 0.00 | 0.00 | 0.00 | 71 | 1010.6 |
| 20260506234948 | 25 | 213 | 1.6 | 11.3 | 0.00 | 0.00 | 0.00 | 71 | 1010.3 |
| 20260506234448 | 25 | 280 | 1.6 | 9.7 | 0.00 | 0.00 | 0.00 | 71 | 1010.2 |
| 20260506233948 | 25 | 252 | 1.6 | 9.7 | 0.00 | 0.00 | 0.00 | 71 | 1009.7 |
| 20260506233447 | 25 | 199 | 3.2 | 14.5 | 0.00 | 0.00 | 0.00 | 71 | 1009.8 |
| 20260506232947 | 25 | 248 | 1.6 | 14.5 | 0.00 | 0.00 | 0.00 | 70 | 1009.8 |
| 20260506232447 | 26 | 245 | 1.6 | 11.3 | 0.00 | 0.00 | 0.00 | 69 | 1009.8 |
| 20260506231946 | 26 | 213 | 3.2 | 14.5 | 0.00 | 0.00 | 0.00 | 69 | 1009.8 |
| 20260506231446 | 26 | 203 | 3.2 | 14.5 | 0.00 | 0.00 | 0.00 | 69 | 1010.2 |
| 20260506230946 | 26 | 257 | 1.6 | 9.7 | 0.00 | 0.00 | 0.00 | 69 | 1010.0 |
| 20260506230446 | 26 | 206 | 3.2 | 12.9 | 0.00 | 0.00 | 0.00 | 68 | 1009.8 |
| 20260506225946 | 26 | 231 | 4.8 | 19.3 | 0.00 | 0.00 | 0.00 | 68 | 1009.8 |
| 20260506225446 | 26 | 240 | 3.2 | 19.3 | 0.00 | 0.00 | 0.00 | 68 | 1010.1 |
| 20260506224946 | 26 | 255 | 3.2 | 9.7 | 0.00 | 0.00 | 0.00 | 68 | 1010.2 |
| 20260506224446 | 26 | 213 | 1.6 | 11.3 | 0.00 | 0.00 | 0.00 | 67 | 1010.1 |
| 20260506223944 | 26 | 235 | 3.2 | 11.3 | 0.00 | 0.00 | 0.00 | 67 | 1009.9 |
| 20260506223445 | 26 | 211 | 4.8 | 16.1 | 0.00 | 0.00 | 0.00 | 67 | 1009.8 |
| 20260506222943 | 26 | 229 | 3.2 | 16.1 | 0.00 | 0.00 | 0.00 | 66 | 1009.9 |
| 20260506222811 | 26 | 226 | 1.6 | 11.3 | 0.00 | 0.00 | 0.00 | 66 | 1010.1 |
| 20260506222735 | 26 | 220 | 1.6 | 11.3 | 0.00 | 0.00 | 0.00 | 66 | 1010.1 |
| 20260506222701 | 26 | 246 | 3.2 | 12.9 | 0.00 | 0.00 | 0.00 | 66 | 1010.0 |
| 20260506220943 | 26 | 243 | 6.4 | 19.3 | 0.00 | 0.00 | 0.00 | 66 | 1010.1 |
| 20260506220443 | 26 | 238 | 4.8 | 19.3 | 0.00 | 0.00 | 0.00 | 65 | 1010.0 |
| 20260506215944 | 26 | 261 | 4.8 | 14.5 | 0.00 | 0.00 | 0.00 | 65 | 1010.0 |
| 20260506215444 | 26 | 259 | 4.8 | 14.5 | 0.00 | 0.00 | 0.00 | 66 | 1010.0 |
| 20260506214943 | 27 | 244 | 3.2 | 12.9 | 0.00 | 0.00 | 0.00 | 65 | 1009.9 |
| 20260506214444 | 27 | 233 | 1.6 | 11.3 | 0.00 | 0.00 | 0.00 | 64 | 1009.9 |
| 20260506213945 | 27 | 234 | 1.6 | 12.9 | 0.00 | 0.00 | 0.00 | 66 | 1009.7 |
| 20260506213445 | 27 | 280 | 3.2 | 12.9 | 0.00 | 0.00 | 0.00 | 65 | 1009.9 |
| 20260506212944 | 26 | 242 | 3.2 | 12.9 | 0.00 | 0.00 | 0.00 | 67 | 1009.9 |
| 20260506212443 | 26 | 272 | 3.2 | 12.9 | 0.00 | 0.00 | 0.00 | 65 | 1010.0 |
| 20260506211443 | 27 | 205 | 1.6 | 12.9 | 0.00 | 0.00 | 0.00 | 64 | 1010.1 |
| 20260506210942 | 27 | 261 | 3.2 | 12.9 | 0.00 | 0.00 | 0.00 | 65 | 1010.2 |
| 20260506210441 | 27 | 242 | 3.2 | 22.5 | 0.00 | 0.00 | 0.00 | 64 | 1010.1 |
| 20260506205942 | 27 | 296 | 4.8 | 22.5 | 0.00 | 0.00 | 0.00 | 64 | 1010.2 |
| 20260506205443 | 27 | 269 | 3.2 | 16.1 | 0.00 | 0.00 | 0.00 | 64 | 1010.2 |
| 20260506204942 | 27 | 238 | 3.2 | 16.1 | 0.00 | 0.00 | 0.00 | 65 | 1010.3 |
| 20260506204442 | 27 | 258 | 3.2 | 16.1 | 0.00 | 0.00 | 0.00 | 65 | 1010.5 |
| 20260506203941 | 26 | 275 | 4.8 | 16.1 | 0.00 | 0.00 | 0.00 | 65 | 1010.7 |
| 20260506202942 | 27 | 273 | 3.2 | 12.9 | 0.00 | 0.00 | 0.00 | 65 | 1010.8 |
| 20260506202441 | 27 | 208 | 4.8 | 20.9 | 0.00 | 0.00 | 0.00 | 67 | 1010.9 |
| 20260506201941 | 26 | 225 | 4.8 | 20.9 | 0.00 | 0.00 | 0.00 | 66 | 1011.1 |
| 20260506201443 | 27 | 222 | 4.8 | 17.7 | 0.00 | 0.00 | 0.00 | 65 | 1011.1 |
| 20260506200941 | 26 | 240 | 3.2 | 16.1 | 0.00 | 0.00 | 0.00 | 65 | 1011.1 |
| 20260506195941 | 26 | 261 | 4.8 | 16.1 | 0.00 | 0.00 | 0.00 | 66 | 1011.4 |
| 20260506195443 | 26 | 297 | 4.8 | 16.1 | 0.00 | 0.00 | 0.00 | 66 | 1011.4 |
| 20260506194943 | 27 | 254 | 3.2 | 11.3 | 0.00 | 0.00 | 0.00 | 66 | 1011.6 |
| 20260506194441 | 26 | 220 | 3.2 | 14.5 | 0.00 | 0.00 | 0.00 | 65 | 1011.7 |
| 20260506193941 | 27 | 261 | 3.2 | 14.5 | 0.00 | 0.00 | 0.00 | 64 | 1011.9 |
| 20260506193441 | 27 | 186 | 4.8 | 17.7 | 0.00 | 0.00 | 0.00 | 64 | 1011.9 |
| 20260506192942 | 27 | 200 | 4.8 | 17.7 | 0.00 | 0.00 | 0.00 | 64 | 1011.9 |
| 20260506192441 | 27 | 300 | 3.2 | 12.9 | 0.00 | 0.00 | 0.00 | 65 | 1011.9 |
| 20260506191941 | 26 | 219 | 3.2 | 17.7 | 0.00 | 0.00 | 0.00 | 64 | 1012.2 |
| 20260506191441 | 26 | 230 | 4.8 | 17.7 | 0.00 | 0.00 | 0.00 | 66 | 1012.2 |
| 20260506185939 | 26 | 248 | 4.8 | 16.1 | 0.00 | 0.00 | 0.00 | 66 | 1012.5 |
| 20260506185439 | 25 | 227 | 3.2 | 16.1 | 0.00 | 0.00 | 0.00 | 68 | 1012.5 |
| 20260506184940 | 25 | 261 | 3.2 | 14.5 | 0.00 | 0.00 | 0.00 | 67 | 1012.6 |
| 20260506183941 | 26 | 252 | 3.2 | 16.1 | 0.00 | 0.00 | 0.00 | 63 | 1012.7 |
| 20260506183439 | 26 | 259 | 3.2 | 12.9 | 0.00 | 0.00 | 0.00 | 65 | 1012.7 |
| 20260506182940 | 26 | 207 | 3.2 | 12.9 | 0.00 | 0.00 | 0.00 | 66 | 1012.6 |
| 20260506182439 | 26 | 160 | 4.8 | 19.3 | 0.00 | 0.00 | 0.00 | 65 | 1012.5 |
| 20260506181938 | 26 | 229 | 6.4 | 19.3 | 0.00 | 0.00 | 0.00 | 65 | 1012.6 |
| 20260506181439 | 26 | 215 | 6.4 | 17.7 | 0.00 | 0.00 | 0.00 | 64 | 1012.7 |
| 20260506180939 | 26 | 281 | 6.4 | 20.9 | 0.00 | 0.00 | 0.00 | 63 | 1012.6 |
| 20260506180439 | 26 | 234 | 4.8 | 20.9 | 0.00 | 0.00 | 0.00 | 63 | 1012.6 |
| 20260506175439 | 26 | 240 | 4.8 | 19.3 | 0.00 | 0.00 | 0.00 | 62 | 1012.3 |
| 20260506174940 | 26 | 265 | 6.4 | 14.5 | 0.00 | 0.00 | 0.00 | 64 | 1012.3 |
| 20260506174439 | 26 | 267 | 4.8 | 14.5 | 0.00 | 0.00 | 0.00 | 63 | 1012.3 |
| 20260506173437 | 26 | 237 | 3.2 | 14.5 | 0.00 | 0.00 | 0.00 | 65 | 1012.4 |
| 20260506172935 | 26 | 288 | 3.2 | 11.3 | 0.00 | 0.00 | 0.00 | 65 | 1012.5 |
| 20260506172435 | 26 | 226 | 4.8 | 14.5 | 0.00 | 0.00 | 0.00 | 66 | 1012.6 |
| 20260506171934 | 26 | 198 | 4.8 | 14.5 | 0.00 | 0.00 | 0.00 | 65 | 1012.7 |
| 20260506171435 | 26 | 199 | 3.2 | 14.5 | 0.00 | 0.00 | 0.00 | 65 | 1012.6 |
| 20260506170933 | 26 | 256 | 3.2 | 8.0 | 0.00 | 0.00 | 0.00 | 65 | 1012.6 |
| 20260506170434 | 26 | 145 | 3.2 | 12.9 | 0.00 | 0.00 | 0.00 | 64 | 1012.8 |
| 20260506165932 | 25 | 224 | 3.2 | 12.9 | 0.00 | 0.00 | 0.00 | 65 | 1012.9 |
| 20260506165432 | 25 | 226 | 4.8 | 14.5 | 0.00 | 0.00 | 0.00 | 67 | 1012.9 |
| 20260506164931 | 25 | 217 | 4.8 | 14.5 | 0.00 | 0.00 | 0.00 | 66 | 1013.1 |
| 20260506164431 | 25 | 251 | 4.8 | 14.5 | 0.00 | 0.00 | 0.00 | 66 | 1013.2 |
| 20260506163929 | 25 | 269 | 4.8 | 14.5 | 0.00 | 0.00 | 0.00 | 66 | 1013.3 |
| 20260506163429 | 25 | 240 | 4.8 | 14.5 | 0.00 | 0.00 | 0.00 | 66 | 1013.4 |
| 20260506162428 | 24 | 207 | 6.4 | 17.7 | 0.00 | 0.00 | 0.00 | 68 | 1013.4 |
| 20260506161427 | 24 | 264 | 6.4 | 20.9 | 0.00 | 0.00 | 0.00 | 68 | 1013.6 |
| 20260506160927 | 23 | 265 | 6.4 | 19.3 | 0.00 | 0.00 | 0.00 | 71 | 1013.6 |
| 20260506160427 | 23 | 273 | 6.4 | 16.1 | 0.00 | 0.00 | 0.00 | 69 | 1013.7 |
| 20260506155926 | 23 | 230 | 4.8 | 14.5 | 0.00 | 0.00 | 0.00 | 70 | 1013.9 |
| 20260506155424 | 23 | 203 | 4.8 | 16.1 | 0.00 | 0.00 | 0.00 | 71 | 1014.0 |
| 20260506154425 | 23 | 295 | 3.2 | 16.1 | 0.00 | 0.00 | 0.00 | 73 | 1014.2 |
| 20260506153925 | 23 | 302 | 3.2 | 16.1 | 0.00 | 0.00 | 0.00 | 73 | 1014.1 |
| 20260506153425 | 23 | 296 | 4.8 | 14.5 | 0.00 | 0.00 | 0.00 | 72 | 1014.2 |
| 20260506152925 | 22 | 253 | 4.8 | 17.7 | 0.00 | 0.00 | 0.00 | 73 | 1014.1 |
| 20260506152425 | 22 | 242 | 4.8 | 22.5 | 0.00 | 0.00 | 0.00 | 72 | 1014.1 |
| 20260506151924 | 22 | 266 | 4.8 | 22.5 | 0.00 | 0.00 | 0.00 | 72 | 1014.1 |